Winona, Texas
Current Conditions -  °F | °C
As of 4:53 AM on Saturday 25 Oct 2014 (Local Time) from KTYR Reporting Station
Clear Clear  
Wind Chill: 62°   Ceiling: Unl
Heat Index: 62°   Visibility: 10mi
Dew Point: 57°   Wind: 8mph
Humidity: 84%   Direction: 190°S
Pressure: 30.12"   Gusts: NA
Location:  32.49°N, 95.17°W
Report Text: KTYR 250953Z AUTO 19007KT 10SM CLR 17/14 A3012 RMK AO2 SLP195 T01670139
Loading
Personal Weather Stations






























Interactive Weather Map
Tropical Storm Tracking
New forecast layout! Learn more

10-Day Weather Forecast

Advertisements
Track Severe Weather on mobile